Minot, North Dakota
Current Conditions -  °F | °C
As of 12:54 PM on Friday 31 Oct 2014 (Local Time) from KMOT Reporting Station
Clear Clear  
Wind Chill: 26°   Ceiling: Unl
Heat Index: 36°   Visibility: 10mi
Dew Point: 18°   Wind: 18mph
Humidity: 48%   Direction: 150°SSE
Pressure: 30.33"   Gusts: 30mph
Location:  48.24°N, 101.29°W
Report Text: KMOT 311754Z 15016G26KT 10SM CLR 02/M08 A3033 RMK AO2 PK WND 16030/1737 SLP297 T00221078 10022 21083 58030
Loading
Personal Weather Stations






























Interactive Weather Map
Tropical Storm Tracking
New forecast layout! Learn more

10-Day Weather Forecast

Advertisements
Track Severe Weather on mobile